createdAt,value
2022-10-13T00:01:18.198Z,9.18
2022-10-13T00:03:47.342Z,10.07
2022-10-13T00:06:23.822Z,10.13
2022-10-13T00:08:51.360Z,8.95
2022-10-13T00:11:25.122Z,8.70
2022-10-13T00:14:00.668Z,8.60
2022-10-13T00:16:31.960Z,8.30
2022-10-13T00:18:59.678Z,9.05
2022-10-13T00:21:28.286Z,9.43
2022-10-13T00:23:56.091Z,10.15
2022-10-13T00:26:25.888Z,9.43
2022-10-13T00:28:54.874Z,9.00
2022-10-13T00:31:28.325Z,8.98
2022-10-13T00:33:56.098Z,9.65
2022-10-13T00:36:24.734Z,8.48
2022-10-13T00:38:52.919Z,9.52
2022-10-13T00:41:21.086Z,9.32
2022-10-13T00:44:01.241Z,8.82
2022-10-13T00:46:32.011Z,10.13
2022-10-13T00:49:06.669Z,9.93
2022-10-13T00:51:39.609Z,10.38
2022-10-13T00:54:10.428Z,10.07
2022-10-13T00:56:39.087Z,9.85
2022-10-13T00:59:13.659Z,10.10
2022-10-13T01:01:41.882Z,9.80
2022-10-13T01:04:10.398Z,9.35
2022-10-13T01:06:38.026Z,9.90
2022-10-13T01:09:08.768Z,9.75
2022-10-13T01:11:39.111Z,10.20
2022-10-13T01:14:17.150Z,9.18
2022-10-13T01:17:07.678Z,10.20
2022-10-13T01:20:12.900Z,9.90
2022-10-13T01:22:47.989Z,10.27
2022-10-13T01:25:37.088Z,10.65
2022-10-13T01:28:29.229Z,10.05
2022-10-13T01:31:08.493Z,11.02
2022-10-13T01:33:44.039Z,10.13
2022-10-13T01:36:32.008Z,10.07
2022-10-13T01:39:13.549Z,10.13
2022-10-13T01:41:46.318Z,9.75
2022-10-13T01:44:29.809Z,10.20
2022-10-13T01:46:58.490Z,10.05
2022-10-13T01:49:31.128Z,10.02
2022-10-13T01:52:03.489Z,9.73
2022-10-13T01:54:32.683Z,9.60
2022-10-13T01:57:00.184Z,10.27
2022-10-13T01:59:31.355Z,10.02
2022-10-13T02:02:01.988Z,9.48
2022-10-13T02:05:02.757Z,9.38
2022-10-13T02:07:35.735Z,10.57
2022-10-13T02:10:17.368Z,10.57
2022-10-13T02:12:59.539Z,9.60
2022-10-13T02:15:35.777Z,9.55
2022-10-13T02:18:07.596Z,10.00
2022-10-13T02:20:36.610Z,9.95
2022-10-13T02:23:10.188Z,9.88
2022-10-13T02:25:38.078Z,9.27
2022-10-13T02:28:06.228Z,9.00
2022-10-13T02:30:41.304Z,9.45
2022-10-13T02:33:09.598Z,9.75
2022-10-13T02:35:39.063Z,9.38
2022-10-13T02:38:06.874Z,9.05
2022-10-13T02:40:34.295Z,9.77
2022-10-13T02:43:01.860Z,8.90
2022-10-13T02:45:29.347Z,8.60
2022-10-13T02:47:58.108Z,9.15
2022-10-13T02:50:25.564Z,8.82
2022-10-13T02:52:53.988Z,9.52
2022-10-13T02:55:21.801Z,9.13
2022-10-13T02:57:56.968Z,9.23
2022-10-13T03:00:26.119Z,8.88
2022-10-13T03:02:54.303Z,8.82
2022-10-13T03:05:21.896Z,9.30
2022-10-13T03:07:49.903Z,9.60
2022-10-13T03:10:17.500Z,8.98
2022-10-13T03:12:44.976Z,9.60
2022-10-13T03:15:12.516Z,9.23
2022-10-13T03:17:40.046Z,8.50
2022-10-13T03:20:08.488Z,9.45
2022-10-13T03:22:36.018Z,8.73
2022-10-13T03:25:04.057Z,8.30
2022-10-13T03:27:31.609Z,9.68
2022-10-13T03:29:59.049Z,8.15
2022-10-13T03:32:26.508Z,8.25
2022-10-13T03:34:54.247Z,8.15
2022-10-13T03:37:21.776Z,8.25
2022-10-13T03:39:49.248Z,9.13
2022-10-13T03:42:18.223Z,8.90
2022-10-13T03:44:51.354Z,8.20
2022-10-13T03:47:21.238Z,9.27
2022-10-13T03:49:48.666Z,9.25
2022-10-13T03:52:16.142Z,8.45
2022-10-13T03:54:43.658Z,8.80
2022-10-13T03:57:11.083Z,9.40
2022-10-13T03:59:41.127Z,8.70
2022-10-13T04:02:08.846Z,8.32
2022-10-13T04:04:38.097Z,8.70
2022-10-13T04:07:07.174Z,7.95
2022-10-13T04:09:34.868Z,7.97
2022-10-13T04:12:02.335Z,8.02
2022-10-13T04:14:29.877Z,8.35
2022-10-13T04:17:02.748Z,8.73
2022-10-13T04:19:30.246Z,7.90
2022-10-13T04:21:58.867Z,7.32
2022-10-13T04:24:26.396Z,8.50
2022-10-13T04:26:53.857Z,8.48
2022-10-13T04:29:21.302Z,7.95
2022-10-13T04:31:52.508Z,8.90
2022-10-13T04:34:20.853Z,9.98
2022-10-13T04:36:51.929Z,10.23
2022-10-13T04:39:19.536Z,8.45
2022-10-13T04:41:49.587Z,8.07
2022-10-13T04:44:17.034Z,8.18
2022-10-13T04:46:44.486Z,8.63
2022-10-13T04:49:12.047Z,8.25
2022-10-13T04:51:39.543Z,8.10
2022-10-13T04:54:07.022Z,8.20
2022-10-13T04:56:34.572Z,7.85
2022-10-13T04:59:06.078Z,7.22
2022-10-13T05:01:34.325Z,7.70
2022-10-13T05:04:04.506Z,7.85
2022-10-13T05:06:53.244Z,8.82
2022-10-13T05:09:22.497Z,9.75
2022-10-13T05:11:49.899Z,8.90
2022-10-13T05:14:17.445Z,9.85
2022-10-13T05:16:44.951Z,8.75
2022-10-13T05:19:14.006Z,9.23
2022-10-13T05:21:41.746Z,11.40
2022-10-13T05:24:13.633Z,10.82
2022-10-13T05:26:41.953Z,11.45
2022-10-13T05:29:09.406Z,11.05
2022-10-13T05:31:37.074Z,11.00
2022-10-13T05:34:04.574Z,11.25
2022-10-13T05:36:34.284Z,11.38
2022-10-13T05:39:06.496Z,11.02
2022-10-13T05:41:34.435Z,10.57
2022-10-13T05:44:08.081Z,11.10
2022-10-13T05:46:40.622Z,10.75
2022-10-13T05:49:08.125Z,9.93
2022-10-13T05:51:40.019Z,11.10
2022-10-13T05:54:14.322Z,9.70
2022-10-13T05:56:47.875Z,10.85
2022-10-13T05:59:18.497Z,9.77
2022-10-13T06:01:48.215Z,8.88
2022-10-13T06:04:22.016Z,10.45
2022-10-13T06:09:18.144Z,10.60
2022-10-13T06:11:46.346Z,11.07
2022-10-13T06:14:13.815Z,10.43
2022-10-13T06:16:42.275Z,12.85
2022-10-13T06:19:09.701Z,11.07
2022-10-13T06:21:37.135Z,11.48
2022-10-13T06:24:04.853Z,11.48
2022-10-13T06:26:32.221Z,13.40
2022-10-13T06:29:00.318Z,13.85
2022-10-13T06:31:28.367Z,14.40
2022-10-13T06:33:55.940Z,12.75
2022-10-13T06:36:23.425Z,14.45
2022-10-13T06:38:51.171Z,14.82
2022-10-13T06:41:20.943Z,13.80
2022-10-13T06:43:48.415Z,13.68
2022-10-13T06:46:17.341Z,13.40
2022-10-13T06:48:44.854Z,12.40
2022-10-13T06:51:12.846Z,12.50
2022-10-13T06:53:40.310Z,13.43
2022-10-13T06:56:08.451Z,12.25
2022-10-13T06:58:36.651Z,12.07
2022-10-13T07:01:05.679Z,14.07
2022-10-13T07:03:33.630Z,12.98
2022-10-13T07:06:05.972Z,13.95
2022-10-13T07:08:34.639Z,13.43
2022-10-13T07:11:16.122Z,12.73
2022-10-13T07:13:48.511Z,14.45
2022-10-13T07:16:16.052Z,15.32
2022-10-13T07:18:43.544Z,14.20
2022-10-13T07:21:11.085Z,13.02
2022-10-13T07:23:38.665Z,15.20
2022-10-13T07:26:12.573Z,12.52
2022-10-13T07:31:12.000Z,13.52
2022-10-13T07:33:40.255Z,13.18
2022-10-13T07:36:08.128Z,11.48
2022-10-13T07:38:35.589Z,13.18
2022-10-13T07:41:04.680Z,13.82
2022-10-13T07:43:32.293Z,12.85
2022-10-13T07:46:01.550Z,13.18
2022-10-13T07:48:29.071Z,14.32
2022-10-13T07:51:02.972Z,13.40
2022-10-13T07:53:30.457Z,12.77
2022-10-13T07:56:01.563Z,13.65
2022-10-13T07:58:29.219Z,14.43
2022-10-13T08:01:00.964Z,13.15
2022-10-13T08:03:29.227Z,12.90
2022-10-13T08:05:59.804Z,14.25
2022-10-13T08:08:28.103Z,14.20
2022-10-13T08:10:56.143Z,13.50
2022-10-13T08:13:24.073Z,13.15
2022-10-13T08:15:51.819Z,12.65
2022-10-13T08:18:19.302Z,13.05
2022-10-13T08:20:48.232Z,12.57
2022-10-13T08:23:18.672Z,13.95
2022-10-13T08:25:52.052Z,13.93
2022-10-13T08:28:23.230Z,13.65
2022-10-13T08:30:52.004Z,12.90
2022-10-13T08:33:20.661Z,13.40
2022-10-13T08:35:48.352Z,13.25
2022-10-13T08:38:16.303Z,12.13
2022-10-13T08:40:49.189Z,13.63
2022-10-13T08:43:20.209Z,14.63
2022-10-13T08:45:51.200Z,13.40
2022-10-13T08:48:22.912Z,13.90
2022-10-13T08:50:55.099Z,14.40
2022-10-13T08:53:41.524Z,13.57
2022-10-13T08:56:20.104Z,14.20
2022-10-13T08:58:50.118Z,13.45
2022-10-13T09:01:19.447Z,14.18
2022-10-13T09:03:50.478Z,13.95
2022-10-13T09:06:28.874Z,13.60
2022-10-13T09:09:01.841Z,13.00
2022-10-13T09:11:35.980Z,13.82
2022-10-13T09:14:07.283Z,14.45
2022-10-13T09:16:41.792Z,14.63
2022-10-13T09:19:22.501Z,14.95
2022-10-13T09:22:13.273Z,14.77
2022-10-13T09:24:40.944Z,14.85
2022-10-13T09:27:16.779Z,14.70
2022-10-13T09:29:45.398Z,14.48
2022-10-13T09:32:25.728Z,13.90
2022-10-13T09:34:55.131Z,13.82
2022-10-13T09:37:24.856Z,13.43
2022-10-13T09:40:14.418Z,13.90
2022-10-13T09:42:42.089Z,14.00
2022-10-13T09:45:22.401Z,13.88
2022-10-13T09:47:53.803Z,13.40
2022-10-13T09:50:25.594Z,13.98
2022-10-13T09:53:09.541Z,13.93
2022-10-13T09:55:37.221Z,12.40
2022-10-13T09:58:17.488Z,13.77
2022-10-13T10:00:46.223Z,12.60
2022-10-13T10:03:22.594Z,11.10
2022-10-13T10:05:51.937Z,10.18
2022-10-13T10:08:33.508Z,10.43
2022-10-13T10:11:05.083Z,9.20
2022-10-13T10:13:32.643Z,10.82
2022-10-13T10:16:10.198Z,11.70
2022-10-13T10:18:58.449Z,11.32
2022-10-13T10:21:49.828Z,11.43
2022-10-13T10:24:29.547Z,9.20
2022-10-13T10:27:03.903Z,8.15
2022-10-13T10:29:58.579Z,9.82
2022-10-13T10:32:41.262Z,8.00
2022-10-13T10:35:21.152Z,7.72
2022-10-13T10:38:09.102Z,7.32
2022-10-13T10:41:01.656Z,6.05
2022-10-13T10:43:47.800Z,5.53
2022-10-13T10:46:23.662Z,6.32
2022-10-13T10:49:15.731Z,6.53
2022-10-13T10:51:44.010Z,5.88
2022-10-13T10:54:17.483Z,6.50
2022-10-13T10:56:53.181Z,7.35
2022-10-13T10:59:40.354Z,6.88
2022-10-13T11:02:07.771Z,6.65
2022-10-13T11:04:45.823Z,6.97
2022-10-13T11:07:22.359Z,7.82
2022-10-13T11:09:50.661Z,6.75
2022-10-13T11:12:21.185Z,7.38
2022-10-13T11:15:28.909Z,5.97
2022-10-13T11:22:02.675Z,6.68
2022-10-13T11:24:39.412Z,6.63
2022-10-13T11:27:14.602Z,6.53
2022-10-13T11:29:46.550Z,6.43
2022-10-13T11:32:26.365Z,5.70
2022-10-13T11:35:10.213Z,6.13
2022-10-13T11:38:07.609Z,5.95
2022-10-13T11:41:09.565Z,5.60
2022-10-13T11:44:09.283Z,4.70
2022-10-13T11:47:02.875Z,5.35
2022-10-13T11:49:59.365Z,4.78
2022-10-13T11:52:51.103Z,5.47
2022-10-13T11:55:29.010Z,5.30
2022-10-13T11:58:24.394Z,5.20
2022-10-13T12:01:01.979Z,9.88
2022-10-13T12:03:35.662Z,10.98
2022-10-13T12:06:34.283Z,10.57
2022-10-13T12:09:15.130Z,10.07
2022-10-13T12:11:44.466Z,8.52
2022-10-13T12:14:24.302Z,9.60
2022-10-13T12:19:31.914Z,9.82
2022-10-13T12:22:01.484Z,8.52
2022-10-13T12:24:30.731Z,10.98
2022-10-13T12:26:58.803Z,10.43
2022-10-13T12:29:31.161Z,9.85
2022-10-13T12:32:02.406Z,10.63
2022-10-13T12:34:33.363Z,10.57
2022-10-13T12:37:08.135Z,11.48
2022-10-13T12:39:37.763Z,11.82
2022-10-13T12:42:08.264Z,11.80
2022-10-13T12:44:38.524Z,10.73
2022-10-13T12:47:05.973Z,11.70
2022-10-13T12:49:35.986Z,10.38
2022-10-13T12:52:14.566Z,10.35
2022-10-13T12:54:51.725Z,11.02
2022-10-13T12:57:35.215Z,10.82
2022-10-13T13:00:17.589Z,10.95
2022-10-13T13:02:53.554Z,11.57
2022-10-13T13:05:31.334Z,11.70
2022-10-13T13:08:05.955Z,12.00
2022-10-13T13:10:35.419Z,11.77
2022-10-13T13:13:15.628Z,11.93
2022-10-13T13:15:43.224Z,11.05
2022-10-13T13:18:22.626Z,12.07
2022-10-13T13:20:50.480Z,11.38
2022-10-13T13:23:19.464Z,10.60
2022-10-13T13:25:47.751Z,11.30
2022-10-13T13:28:16.298Z,11.45
2022-10-13T13:30:44.006Z,11.02
2022-10-13T13:35:44.254Z,9.38
2022-10-13T13:38:12.193Z,9.70
2022-10-13T13:40:39.683Z,9.45
2022-10-13T13:43:08.685Z,9.07
2022-10-13T13:45:36.415Z,8.63
2022-10-13T13:48:06.611Z,8.90
2022-10-13T13:50:36.637Z,8.80
2022-10-13T13:53:05.378Z,9.10
2022-10-13T13:55:33.123Z,8.68
2022-10-13T13:58:01.080Z,8.38
2022-10-13T14:00:28.587Z,9.18
2022-10-13T14:02:57.826Z,8.50
2022-10-13T14:05:25.635Z,9.15
2022-10-13T14:07:55.516Z,8.63
2022-10-13T14:10:23.007Z,8.90
2022-10-13T14:12:51.494Z,9.02
2022-10-13T14:15:25.816Z,8.18
2022-10-13T14:17:56.633Z,8.88
2022-10-13T14:20:24.156Z,10.05
2022-10-13T14:22:51.813Z,11.07
2022-10-13T14:25:19.386Z,9.63
2022-10-13T14:27:47.076Z,10.75
2022-10-13T14:30:14.905Z,10.38
2022-10-13T14:32:42.683Z,10.82
2022-10-13T14:35:10.235Z,11.30
2022-10-13T14:37:38.926Z,11.02
2022-10-13T14:40:06.973Z,10.90
2022-10-13T14:42:34.462Z,11.95
2022-10-13T14:45:06.657Z,11.52
2022-10-13T14:47:34.273Z,10.68
2022-10-13T14:50:01.983Z,10.52
2022-10-13T14:52:29.794Z,10.80
2022-10-13T14:54:57.279Z,10.20
2022-10-13T14:57:24.880Z,11.93
2022-10-13T14:59:52.354Z,10.85
2022-10-13T15:02:19.851Z,10.75
2022-10-13T15:04:54.054Z,11.10
2022-10-13T15:07:21.764Z,11.00
2022-10-13T15:10:04.254Z,11.50
2022-10-13T15:12:32.835Z,12.50
2022-10-13T15:15:00.345Z,12.23
2022-10-13T15:17:28.336Z,12.90
2022-10-13T15:19:55.772Z,13.48
2022-10-13T15:22:23.631Z,12.82
2022-10-13T15:24:51.433Z,12.65
2022-10-13T15:27:18.913Z,13.43
2022-10-13T15:29:46.416Z,13.65
2022-10-13T15:32:20.411Z,15.23
2022-10-13T15:34:55.135Z,13.10
2022-10-13T15:37:22.580Z,13.98
2022-10-13T15:39:54.512Z,14.43
2022-10-13T15:42:24.518Z,13.13
2022-10-13T15:45:08.671Z,15.38
2022-10-13T15:47:36.701Z,15.38
2022-10-13T15:50:04.574Z,14.32
2022-10-13T15:52:34.953Z,13.63
2022-10-13T15:55:02.875Z,15.13
2022-10-13T15:57:33.775Z,15.88
2022-10-13T16:00:01.271Z,16.08
2022-10-13T16:02:28.742Z,15.35
2022-10-13T16:04:57.290Z,15.25
2022-10-13T16:07:24.805Z,16.48
2022-10-13T16:09:52.287Z,16.75
2022-10-13T16:12:19.888Z,16.50
2022-10-13T16:14:47.668Z,15.77
2022-10-13T16:17:15.161Z,16.67
2022-10-13T16:19:42.724Z,17.33
2022-10-13T16:22:10.214Z,15.75
2022-10-13T16:24:37.670Z,15.90
2022-10-13T16:27:06.591Z,17.90
2022-10-13T16:29:34.171Z,19.00
2022-10-13T16:32:01.645Z,17.73
2022-10-13T16:34:29.311Z,17.70
2022-10-13T16:36:56.844Z,18.08
2022-10-13T16:39:24.901Z,16.27
2022-10-13T16:41:52.863Z,17.88
2022-10-13T16:44:25.352Z,18.65
2022-10-13T16:46:54.271Z,17.85
2022-10-13T16:49:21.784Z,18.90
2022-10-13T16:51:49.230Z,18.88
2022-10-13T16:54:16.691Z,19.52
2022-10-13T16:56:44.125Z,21.05
2022-10-13T16:59:11.634Z,19.35
2022-10-13T17:01:40.407Z,21.27
2022-10-13T17:04:07.887Z,24.08
2022-10-13T17:06:38.754Z,24.00
2022-10-13T17:09:06.283Z,24.05
2022-10-13T17:11:35.590Z,24.83
2022-10-13T17:14:05.825Z,24.70
2022-10-13T17:16:34.087Z,22.88
2022-10-13T17:19:02.203Z,24.05
2022-10-13T17:21:36.983Z,26.70
2022-10-13T17:24:06.462Z,25.13
2022-10-13T17:26:34.182Z,27.08
2022-10-13T17:29:02.182Z,25.52
2022-10-13T17:31:29.784Z,26.52
2022-10-13T17:33:57.231Z,27.38
2022-10-13T17:36:27.031Z,29.45
2022-10-13T17:38:56.144Z,27.83
2022-10-13T17:41:24.586Z,29.35
2022-10-13T17:43:52.543Z,29.08
2022-10-13T17:46:39.246Z,31.10
2022-10-13T17:49:10.087Z,28.80
2022-10-13T17:51:37.901Z,31.48
2022-10-13T17:54:05.484Z,30.73
2022-10-13T17:56:33.228Z,28.33
2022-10-13T17:59:02.197Z,31.15
2022-10-13T18:01:34.722Z,31.38
2022-10-13T18:04:23.668Z,33.03
2022-10-13T18:06:51.141Z,31.63
2022-10-13T18:09:21.097Z,32.83
2022-10-13T18:11:51.167Z,31.55
2022-10-13T18:14:24.917Z,30.88
2022-10-13T18:16:53.395Z,31.58
2022-10-13T18:19:21.862Z,31.98
2022-10-13T18:21:49.656Z,31.05
2022-10-13T18:24:17.282Z,31.25
2022-10-13T18:26:44.843Z,30.42
2022-10-13T18:29:13.332Z,31.30
2022-10-13T18:31:42.096Z,30.30
2022-10-13T18:34:13.281Z,28.27
2022-10-13T18:36:43.429Z,30.27
2022-10-13T18:39:20.296Z,27.48
2022-10-13T18:41:50.248Z,28.80
2022-10-13T18:44:18.225Z,28.25
2022-10-13T18:46:45.659Z,28.70
2022-10-13T18:49:14.908Z,30.13
2022-10-13T18:51:43.992Z,28.33
2022-10-13T18:54:11.970Z,27.77
2022-10-13T18:56:39.482Z,29.13
2022-10-13T18:59:08.349Z,28.08
2022-10-13T19:01:37.781Z,29.45
2022-10-13T19:04:06.018Z,27.58
2022-10-13T19:06:33.802Z,28.17
2022-10-13T19:09:07.139Z,26.67
2022-10-13T19:11:37.465Z,28.13
2022-10-13T19:14:07.659Z,27.52
2022-10-13T19:16:38.169Z,26.52
2022-10-13T19:19:06.873Z,27.52
2022-10-13T19:21:34.276Z,26.15
2022-10-13T19:24:02.200Z,25.55
2022-10-13T19:26:32.443Z,24.90
2022-10-13T19:29:04.310Z,25.20
2022-10-13T19:31:33.653Z,25.08
2022-10-13T19:34:05.363Z,24.80
2022-10-13T19:36:37.662Z,23.38
2022-10-13T19:39:11.569Z,21.92
2022-10-13T19:41:39.363Z,23.35
2022-10-13T19:44:06.793Z,22.55
2022-10-13T19:46:40.503Z,21.58
2022-10-13T19:49:08.692Z,23.58
2022-10-13T19:51:37.873Z,22.67
2022-10-13T19:54:05.587Z,23.00
2022-10-13T19:56:34.159Z,23.05
2022-10-13T19:59:04.454Z,23.67
2022-10-13T20:01:33.168Z,22.40
2022-10-13T20:04:01.762Z,20.88
2022-10-13T20:06:29.154Z,22.27
2022-10-13T20:08:58.713Z,21.88
2022-10-13T20:11:26.780Z,23.42
2022-10-13T20:13:54.215Z,21.58
2022-10-13T20:16:24.719Z,19.35
2022-10-13T20:18:55.754Z,20.75
2022-10-13T20:21:24.887Z,21.60
2022-10-13T20:23:52.628Z,21.13
2022-10-13T20:26:20.287Z,21.55
2022-10-13T20:28:49.358Z,23.23
2022-10-13T20:31:19.778Z,20.58
2022-10-13T20:33:47.430Z,20.83
2022-10-13T20:36:16.862Z,21.77
2022-10-13T20:38:44.508Z,20.08
2022-10-13T20:41:21.160Z,18.58
2022-10-13T20:43:49.542Z,18.92
2022-10-13T20:46:18.373Z,17.85
2022-10-13T20:51:34.154Z,18.05
2022-10-13T20:54:01.681Z,16.33
2022-10-13T20:56:29.182Z,18.00
2022-10-13T20:58:56.851Z,18.88
2022-10-13T21:01:24.363Z,16.42
2022-10-13T21:03:55.414Z,18.65
2022-10-13T21:06:25.113Z,17.27
2022-10-13T21:08:52.964Z,18.13
2022-10-13T21:11:22.324Z,18.45
2022-10-13T21:13:50.894Z,18.25
2022-10-13T21:16:27.279Z,17.42
2022-10-13T21:18:56.378Z,17.83
2022-10-13T21:21:29.090Z,17.67
2022-10-13T21:24:02.158Z,16.85
2022-10-13T21:26:31.993Z,16.07
2022-10-13T21:29:00.730Z,17.38
2022-10-13T21:31:29.578Z,17.98
2022-10-13T21:33:57.162Z,15.95
2022-10-13T21:36:30.815Z,15.98
2022-10-13T21:39:05.865Z,14.45
2022-10-13T21:41:34.161Z,12.65
2022-10-13T21:44:02.251Z,12.88
2022-10-13T21:46:33.455Z,14.63
2022-10-13T21:49:03.097Z,16.30
2022-10-13T21:51:33.631Z,13.35
2022-10-13T21:54:10.191Z,13.68
2022-10-13T21:56:38.670Z,13.23
2022-10-13T21:59:07.311Z,13.23
2022-10-13T22:01:34.853Z,13.18
2022-10-13T22:06:37.180Z,10.93
2022-10-13T22:09:06.213Z,10.55
2022-10-13T22:11:36.034Z,11.95
2022-10-13T22:14:11.075Z,13.15
2022-10-13T22:16:44.171Z,12.20
2022-10-13T22:19:12.424Z,12.90
2022-10-13T22:21:46.303Z,12.48
2022-10-13T22:26:43.729Z,12.80
2022-10-13T22:29:13.811Z,13.15
2022-10-13T22:31:41.598Z,13.75
2022-10-13T22:34:13.079Z,11.70
2022-10-13T22:36:44.406Z,12.35
2022-10-13T22:39:13.082Z,12.52
2022-10-13T22:41:41.380Z,12.60
2022-10-13T22:44:09.329Z,12.25
2022-10-13T22:46:39.239Z,13.77
2022-10-13T22:49:08.014Z,14.63
2022-10-13T22:51:36.610Z,16.45
2022-10-13T22:54:04.196Z,15.90
2022-10-13T22:56:33.289Z,18.40
2022-10-13T22:59:08.572Z,17.38
2022-10-13T23:01:36.553Z,18.75
2022-10-13T23:04:04.640Z,18.83
2022-10-13T23:06:34.582Z,16.65
2022-10-13T23:09:05.268Z,18.67
2022-10-13T23:11:34.513Z,16.83
2022-10-13T23:14:03.492Z,15.48
2022-10-13T23:16:31.279Z,14.90
2022-10-13T23:18:58.814Z,15.65
2022-10-13T23:21:28.632Z,15.50
2022-10-13T23:23:58.987Z,15.93
2022-10-13T23:26:26.703Z,17.70
2022-10-13T23:28:56.107Z,15.52
2022-10-13T23:31:24.557Z,15.30
2022-10-13T23:33:52.174Z,13.75
2022-10-13T23:36:22.613Z,12.43
2022-10-13T23:38:58.002Z,12.77
2022-10-13T23:41:26.331Z,12.77
2022-10-13T23:43:53.883Z,12.85
2022-10-13T23:46:21.642Z,10.68
2022-10-13T23:48:49.121Z,11.13
2022-10-13T23:51:20.921Z,11.25
2022-10-13T23:53:48.436Z,10.73
2022-10-13T23:56:18.400Z,11.32
2022-10-13T23:58:46.282Z,11.15
